createdAt,value
2019-05-18T00:01:32.177Z,40.40
2019-05-18T00:03:58.861Z,16.10
2019-05-18T00:06:25.566Z,32.30
2019-05-18T00:08:52.322Z,12.40
2019-05-18T00:11:19.190Z,15.32
2019-05-18T00:13:46.258Z,14.93
2019-05-18T00:16:13.008Z,22.65
2019-05-18T00:18:40.069Z,15.38
2019-05-18T00:21:06.771Z,19.65
2019-05-18T00:23:33.506Z,13.38
2019-05-18T00:26:00.241Z,9.93
2019-05-18T00:28:27.081Z,10.72
2019-05-18T00:30:53.824Z,13.90
2019-05-18T00:33:20.543Z,14.98
2019-05-18T00:35:47.465Z,11.63
2019-05-18T00:38:14.243Z,12.07
2019-05-18T00:40:40.943Z,15.45
2019-05-18T00:43:07.727Z,14.58
2019-05-18T00:45:34.429Z,13.03
2019-05-18T00:48:02.290Z,14.33
2019-05-18T00:50:29.065Z,13.38
2019-05-18T00:52:55.816Z,13.55
2019-05-18T00:55:22.567Z,11.68
2019-05-18T00:57:49.303Z,14.53
2019-05-18T01:00:16.369Z,12.03
2019-05-18T01:02:43.063Z,12.43
2019-05-18T01:05:09.928Z,15.63
2019-05-18T01:07:36.723Z,15.30
2019-05-18T01:10:05.896Z,11.53
2019-05-18T01:12:32.668Z,12.28
2019-05-18T01:14:59.330Z,10.93
2019-05-18T01:17:26.029Z,22.95
2019-05-18T01:19:52.677Z,35.50
2019-05-18T01:22:19.367Z,18.48
2019-05-18T01:24:46.529Z,15.23
2019-05-18T01:27:13.205Z,17.87
2019-05-18T01:29:39.987Z,72.67
2019-05-18T01:32:07.024Z,52.60
2019-05-18T01:34:33.814Z,110.00
2019-05-18T01:37:00.545Z,153.45
2019-05-18T01:39:27.388Z,100.87
2019-05-18T01:41:54.081Z,64.10
2019-05-18T01:44:20.759Z,34.13
2019-05-18T01:46:47.467Z,24.47
2019-05-18T01:49:14.143Z,17.48
2019-05-18T01:51:40.842Z,16.48
2019-05-18T01:54:07.603Z,19.12
2019-05-18T01:56:34.354Z,14.93
2019-05-18T01:59:01.041Z,16.42
2019-05-18T02:01:27.760Z,15.78
2019-05-18T02:03:54.446Z,12.10
2019-05-18T02:06:21.129Z,17.52
2019-05-18T02:08:47.911Z,12.50
2019-05-18T02:11:14.588Z,14.13
2019-05-18T02:13:41.332Z,16.35
2019-05-18T02:16:08.102Z,25.72
2019-05-18T02:18:34.910Z,20.75
2019-05-18T02:21:01.966Z,14.35
2019-05-18T02:23:28.779Z,15.78
2019-05-18T02:25:55.484Z,20.27
2019-05-18T02:28:23.608Z,19.05
2019-05-18T02:30:50.340Z,20.68
2019-05-18T02:33:17.022Z,13.18
2019-05-18T02:35:43.780Z,15.98
2019-05-18T02:38:15.061Z,25.00
2019-05-18T02:40:42.207Z,22.62
2019-05-18T02:43:09.019Z,19.90
2019-05-18T02:45:36.025Z,17.40
2019-05-18T02:48:02.867Z,20.05
2019-05-18T02:50:29.593Z,23.30
2019-05-18T02:52:56.347Z,22.32
2019-05-18T02:55:23.091Z,16.45
2019-05-18T02:57:49.786Z,18.07
2019-05-18T03:00:16.723Z,18.55
2019-05-18T03:02:43.480Z,18.32
2019-05-18T03:05:10.557Z,22.02
2019-05-18T03:07:38.316Z,22.98
2019-05-18T03:10:05.762Z,20.65
2019-05-18T03:12:32.403Z,20.72
2019-05-18T03:14:59.102Z,20.12
2019-05-18T03:17:25.962Z,21.07
2019-05-18T03:19:52.804Z,21.73
2019-05-18T03:22:19.599Z,21.17
2019-05-18T03:24:46.301Z,17.62
2019-05-18T03:27:13.072Z,19.90
2019-05-18T03:29:41.104Z,21.48
2019-05-18T03:32:07.809Z,81.63
2019-05-18T03:34:34.572Z,51.50
2019-05-18T03:37:01.351Z,33.53
2019-05-18T03:39:28.093Z,24.90
2019-05-18T03:41:54.985Z,22.48
2019-05-18T03:44:21.749Z,22.80
2019-05-18T03:46:48.518Z,19.67
2019-05-18T03:49:26.006Z,16.70
2019-05-18T03:51:45.021Z,19.15
2019-05-18T03:54:11.700Z,17.98
2019-05-18T03:56:38.391Z,22.30
2019-05-18T03:59:05.257Z,17.52
2019-05-18T04:01:32.944Z,22.05
2019-05-18T04:04:00.713Z,16.52
2019-05-18T04:06:27.415Z,20.15
2019-05-18T04:08:54.246Z,18.85
2019-05-18T04:11:21.089Z,16.90
2019-05-18T04:13:47.787Z,16.73
2019-05-18T04:16:14.470Z,19.23
2019-05-18T04:18:41.299Z,18.17
2019-05-18T04:21:07.959Z,17.73
2019-05-18T04:23:34.749Z,23.45
2019-05-18T04:26:01.652Z,20.08
2019-05-18T04:28:28.458Z,17.65
2019-05-18T04:30:55.135Z,20.20
2019-05-18T04:33:22.365Z,18.80
2019-05-18T04:35:49.044Z,17.67
2019-05-18T04:38:15.820Z,23.02
2019-05-18T04:40:42.594Z,18.45
2019-05-18T04:43:09.307Z,18.20
2019-05-18T04:45:35.979Z,22.15
2019-05-18T04:48:02.875Z,16.80
2019-05-18T04:50:29.725Z,16.62
2019-05-18T04:52:56.483Z,18.55
2019-05-18T04:55:23.233Z,18.40
2019-05-18T04:57:50.049Z,16.25
2019-05-18T05:00:18.036Z,18.40
2019-05-18T05:02:44.728Z,17.92
2019-05-18T05:05:11.582Z,19.60
2019-05-18T05:07:38.440Z,20.48
2019-05-18T05:10:07.226Z,23.27
2019-05-18T05:12:33.898Z,20.75
2019-05-18T05:15:02.354Z,22.02
2019-05-18T05:17:29.123Z,17.50
2019-05-18T05:19:55.823Z,24.02
2019-05-18T05:22:22.502Z,19.40
2019-05-18T05:24:49.208Z,18.50
2019-05-18T05:27:15.975Z,23.20
2019-05-18T05:29:42.674Z,21.27
2019-05-18T05:32:09.549Z,21.02
2019-05-18T05:34:36.307Z,19.40
2019-05-18T05:37:03.250Z,20.10
2019-05-18T05:39:30.007Z,26.30
2019-05-18T05:41:57.755Z,23.77
2019-05-18T05:44:24.548Z,19.90
2019-05-18T05:46:51.310Z,22.30
2019-05-18T05:49:18.078Z,23.35
2019-05-18T05:51:44.916Z,18.23
2019-05-18T05:54:11.630Z,21.02
2019-05-18T05:56:38.304Z,22.48
2019-05-18T05:59:05.118Z,19.37
2019-05-18T06:01:31.826Z,20.15
2019-05-18T06:03:58.591Z,18.85
2019-05-18T06:06:25.363Z,25.10
2019-05-18T06:08:52.082Z,20.52
2019-05-18T06:11:18.856Z,21.95
2019-05-18T06:13:45.678Z,20.85
2019-05-18T06:16:12.505Z,17.25
2019-05-18T06:18:39.192Z,20.60
2019-05-18T06:21:06.021Z,17.65
2019-05-18T06:23:32.816Z,17.95
2019-05-18T06:25:59.602Z,14.58
2019-05-18T06:28:26.401Z,12.75
2019-05-18T06:30:54.162Z,15.35
2019-05-18T06:33:20.923Z,11.05
2019-05-18T06:35:47.703Z,11.45
2019-05-18T06:38:14.452Z,13.05
2019-05-18T06:40:41.144Z,13.32
2019-05-18T06:43:07.923Z,16.37
2019-05-18T06:45:34.930Z,14.13
2019-05-18T06:48:01.686Z,13.75
2019-05-18T06:50:29.695Z,11.45
2019-05-18T06:52:56.628Z,11.53
2019-05-18T06:55:25.065Z,12.13
2019-05-18T06:57:52.349Z,9.58
2019-05-18T07:00:19.160Z,11.65
2019-05-18T07:02:45.963Z,11.80
2019-05-18T07:05:13.015Z,12.45
2019-05-18T07:07:40.123Z,9.40
2019-05-18T07:10:06.893Z,13.70
2019-05-18T07:12:34.028Z,14.45
2019-05-18T07:15:00.788Z,13.55
2019-05-18T07:17:27.504Z,14.20
2019-05-18T07:19:54.264Z,12.55
2019-05-18T07:22:20.962Z,12.88
2019-05-18T07:24:47.688Z,12.50
2019-05-18T07:27:14.765Z,11.08
2019-05-18T07:29:42.566Z,11.55
2019-05-18T07:32:09.341Z,13.00
2019-05-18T07:34:36.136Z,15.03
2019-05-18T07:37:03.003Z,11.33
2019-05-18T07:39:29.832Z,9.63
2019-05-18T07:41:56.618Z,17.05
2019-05-18T07:44:23.393Z,42.25
2019-05-18T07:46:50.195Z,17.27
2019-05-18T07:49:16.910Z,61.55
2019-05-18T07:51:43.994Z,16.93
2019-05-18T07:54:10.822Z,9.80
2019-05-18T07:56:37.586Z,11.12
2019-05-18T07:59:04.269Z,9.55
2019-05-18T08:01:31.025Z,12.58
2019-05-18T08:03:57.717Z,10.00
2019-05-18T08:06:24.451Z,7.75
2019-05-18T08:08:51.360Z,10.40
2019-05-18T08:11:18.034Z,9.98
2019-05-18T08:13:44.747Z,10.63
2019-05-18T08:16:11.495Z,14.58
2019-05-18T08:18:38.226Z,10.95
2019-05-18T08:21:05.004Z,14.83
2019-05-18T08:23:31.927Z,8.93
2019-05-18T08:25:58.668Z,13.55
2019-05-18T08:28:26.558Z,10.38
2019-05-18T08:30:53.314Z,27.00
2019-05-18T08:33:20.033Z,14.05
2019-05-18T08:35:46.695Z,11.18
2019-05-18T08:38:13.603Z,9.83
2019-05-18T08:40:40.342Z,8.70
2019-05-18T08:43:07.033Z,10.23
2019-05-18T08:45:34.038Z,9.95
2019-05-18T08:48:00.790Z,6.80
2019-05-18T08:50:27.661Z,6.85
2019-05-18T08:52:54.492Z,7.80
2019-05-18T08:55:21.338Z,10.70
2019-05-18T08:57:48.091Z,8.65
2019-05-18T09:00:15.296Z,8.03
2019-05-18T09:02:42.062Z,10.25
2019-05-18T09:05:09.264Z,8.90
2019-05-18T09:07:36.100Z,12.30
2019-05-18T09:10:04.793Z,9.83
2019-05-18T09:12:31.575Z,8.98
2019-05-18T09:14:58.328Z,6.87
2019-05-18T09:17:25.029Z,10.95
2019-05-18T09:19:51.854Z,9.00
2019-05-18T09:22:23.305Z,10.38
2019-05-18T09:24:47.335Z,11.60
2019-05-18T09:27:14.076Z,9.08
2019-05-18T09:29:40.961Z,9.63
2019-05-18T09:32:07.763Z,8.78
2019-05-18T09:34:34.541Z,9.73
2019-05-18T09:37:01.680Z,9.00
2019-05-18T09:39:28.422Z,9.68
2019-05-18T09:41:55.134Z,7.85
2019-05-18T09:44:22.022Z,7.83
2019-05-18T09:46:48.913Z,12.07
2019-05-18T09:49:15.692Z,7.87
2019-05-18T09:51:42.652Z,7.25
2019-05-18T09:54:09.403Z,11.28
2019-05-18T09:56:36.118Z,7.12
2019-05-18T09:59:03.180Z,5.33
2019-05-18T10:01:29.950Z,6.78
2019-05-18T10:03:56.777Z,7.97
2019-05-18T10:06:23.515Z,7.40
2019-05-18T10:08:50.282Z,8.78
2019-05-18T10:11:17.019Z,10.58
2019-05-18T10:13:43.853Z,9.90
2019-05-18T10:16:10.620Z,6.47
2019-05-18T10:18:37.405Z,7.67
2019-05-18T10:21:05.296Z,8.15
2019-05-18T10:23:33.109Z,9.55
2019-05-18T10:26:01.989Z,13.90
2019-05-18T10:28:28.849Z,7.60
2019-05-18T10:30:56.772Z,9.00
2019-05-18T10:33:23.470Z,11.35
2019-05-18T10:35:50.204Z,7.80
2019-05-18T10:38:17.045Z,8.03
2019-05-18T10:40:43.757Z,8.80
2019-05-18T10:43:10.469Z,9.10
2019-05-18T10:45:38.132Z,11.25
2019-05-18T10:48:04.961Z,8.50
2019-05-18T10:50:34.610Z,9.90
2019-05-18T10:53:05.359Z,13.03
2019-05-18T10:55:38.182Z,13.15
2019-05-18T10:58:09.601Z,16.00
2019-05-18T11:00:46.841Z,12.20
2019-05-18T11:03:14.396Z,8.98
2019-05-18T11:05:41.078Z,11.33
2019-05-18T11:08:07.857Z,10.30
2019-05-18T11:10:34.533Z,11.55
2019-05-18T11:13:01.227Z,9.15
2019-05-18T11:15:28.025Z,8.93
2019-05-18T11:17:54.708Z,7.97
2019-05-18T11:20:22.019Z,9.13
2019-05-18T11:22:48.773Z,8.58
2019-05-18T11:25:15.543Z,7.85
2019-05-18T11:27:42.234Z,13.50
2019-05-18T11:30:11.372Z,13.48
2019-05-18T11:32:38.254Z,11.97
2019-05-18T11:35:05.984Z,11.10
2019-05-18T11:37:32.820Z,8.95
2019-05-18T11:40:00.511Z,7.90
2019-05-18T11:42:27.194Z,10.68
2019-05-18T11:44:53.919Z,12.75
2019-05-18T11:47:20.606Z,12.58
2019-05-18T11:49:47.305Z,9.18
2019-05-18T11:52:14.018Z,9.30
2019-05-18T11:54:40.718Z,10.03
2019-05-18T11:57:07.560Z,10.40
2019-05-18T11:59:34.336Z,8.08
2019-05-18T12:02:01.031Z,7.00
2019-05-18T12:04:27.805Z,11.90
2019-05-18T12:06:54.591Z,10.32
2019-05-18T12:09:21.340Z,10.05
2019-05-18T12:11:48.192Z,12.90
2019-05-18T12:14:14.974Z,12.43
2019-05-18T12:16:41.661Z,9.55
2019-05-18T12:19:08.496Z,9.93
2019-05-18T12:21:35.172Z,11.25
2019-05-18T12:24:14.940Z,11.90
2019-05-18T12:26:30.532Z,6.70
2019-05-18T12:28:57.341Z,6.78
2019-05-18T12:31:24.304Z,8.95
2019-05-18T12:33:51.143Z,8.05
2019-05-18T12:36:18.003Z,9.90
2019-05-18T12:38:44.734Z,8.95
2019-05-18T12:41:11.653Z,7.90
2019-05-18T12:43:38.359Z,8.15
2019-05-18T12:46:05.074Z,11.33
2019-05-18T12:48:31.911Z,9.13
2019-05-18T12:50:58.591Z,7.20
2019-05-18T12:53:25.404Z,13.48
2019-05-18T12:55:52.150Z,8.65
2019-05-18T12:58:18.881Z,12.07
2019-05-18T13:00:45.747Z,12.63
2019-05-18T13:03:12.700Z,8.78
2019-05-18T13:05:39.473Z,11.03
2019-05-18T13:08:06.343Z,10.28
2019-05-18T13:10:33.244Z,9.18
2019-05-18T13:13:00.109Z,8.38
2019-05-18T13:15:27.084Z,9.68
2019-05-18T13:17:53.836Z,9.80
2019-05-18T13:20:21.019Z,9.03
2019-05-18T13:22:47.788Z,8.83
2019-05-18T13:25:15.283Z,10.50
2019-05-18T13:27:42.028Z,8.38
2019-05-18T13:30:11.270Z,10.88
2019-05-18T13:32:38.084Z,7.53
2019-05-18T13:35:06.299Z,8.63
2019-05-18T13:37:33.132Z,9.13
2019-05-18T13:39:59.884Z,8.00
2019-05-18T13:42:26.666Z,9.68
2019-05-18T13:44:53.494Z,8.13
2019-05-18T13:47:20.171Z,13.18
2019-05-18T13:49:46.859Z,7.70
2019-05-18T13:52:13.706Z,10.08
2019-05-18T13:54:40.542Z,9.38
2019-05-18T13:57:08.255Z,8.30
2019-05-18T13:59:35.043Z,8.68
2019-05-18T14:02:01.844Z,9.55
2019-05-18T14:04:28.918Z,7.90
2019-05-18T14:06:55.576Z,9.10
2019-05-18T14:09:22.275Z,9.45
2019-05-18T14:11:49.039Z,8.28
2019-05-18T14:14:15.765Z,10.05
2019-05-18T14:16:42.444Z,9.50
2019-05-18T14:19:09.129Z,11.05
2019-05-18T14:21:35.874Z,10.25
2019-05-18T14:24:03.052Z,8.15
2019-05-18T14:26:29.735Z,10.15
2019-05-18T14:28:56.430Z,7.33
2019-05-18T14:31:23.112Z,8.38
2019-05-18T14:33:49.860Z,7.40
2019-05-18T14:36:16.626Z,8.70
2019-05-18T14:38:43.392Z,9.10
2019-05-18T14:41:11.131Z,10.72
2019-05-18T14:43:37.928Z,11.40
2019-05-18T14:46:04.597Z,11.08
2019-05-18T14:48:31.379Z,8.93
2019-05-18T14:50:58.093Z,10.58
2019-05-18T14:53:24.799Z,8.28
2019-05-18T14:55:51.550Z,10.53
2019-05-18T14:58:18.214Z,10.82
2019-05-18T15:00:44.901Z,8.68
2019-05-18T15:03:11.731Z,9.58
2019-05-18T15:05:38.888Z,16.35
2019-05-18T15:08:05.781Z,7.83
2019-05-18T15:10:32.542Z,10.80
2019-05-18T15:12:59.291Z,9.85
2019-05-18T15:15:25.988Z,11.30
2019-05-18T15:17:52.806Z,9.55
2019-05-18T15:20:19.591Z,6.97
2019-05-18T15:22:46.282Z,7.03
2019-05-18T15:25:13.963Z,8.73
2019-05-18T15:27:40.662Z,8.70
2019-05-18T15:30:08.162Z,13.35
2019-05-18T15:32:34.909Z,7.90
2019-05-18T15:35:01.690Z,12.35
2019-05-18T15:37:29.382Z,10.08
2019-05-18T15:39:56.115Z,11.53
2019-05-18T15:42:22.880Z,11.48
2019-05-18T15:44:49.878Z,10.48
2019-05-18T15:47:16.621Z,14.13
2019-05-18T15:49:43.469Z,12.35
2019-05-18T15:52:10.467Z,9.43
2019-05-18T15:54:37.220Z,8.50
2019-05-18T15:57:04.014Z,7.75
2019-05-18T15:59:30.674Z,12.35
2019-05-18T16:01:57.526Z,12.25
2019-05-18T16:04:24.451Z,8.45
2019-05-18T16:06:51.259Z,15.40
2019-05-18T16:09:18.944Z,8.53
2019-05-18T16:11:45.788Z,10.53
2019-05-18T16:14:12.488Z,11.03
2019-05-18T16:16:39.283Z,13.88
2019-05-18T16:19:06.016Z,8.40
2019-05-18T16:21:32.747Z,12.05
2019-05-18T16:23:59.503Z,10.45
2019-05-18T16:26:26.502Z,13.65
2019-05-18T16:28:53.180Z,8.50
2019-05-18T16:31:20.246Z,12.53
2019-05-18T16:33:46.960Z,11.30
2019-05-18T16:36:13.651Z,10.55
2019-05-18T16:38:40.622Z,10.60
2019-05-18T16:41:07.444Z,11.30
2019-05-18T16:43:34.217Z,13.43
2019-05-18T16:46:00.994Z,10.85
2019-05-18T16:48:27.686Z,11.73
2019-05-18T16:50:54.497Z,12.13
2019-05-18T16:53:21.209Z,10.35
2019-05-18T16:55:47.931Z,14.15
2019-05-18T16:58:14.688Z,10.78
2019-05-18T17:00:41.463Z,11.83
2019-05-18T17:03:08.397Z,13.18
2019-05-18T17:05:35.145Z,11.60
2019-05-18T17:08:01.882Z,11.70
2019-05-18T17:10:28.631Z,12.85
2019-05-18T17:12:55.399Z,12.45
2019-05-18T17:15:24.859Z,12.98
2019-05-18T17:17:51.731Z,12.85
2019-05-18T17:20:19.018Z,12.50
2019-05-18T17:22:45.952Z,12.35
2019-05-18T17:25:12.713Z,12.53
2019-05-18T17:27:39.880Z,14.10
2019-05-18T17:30:07.958Z,13.53
2019-05-18T17:32:34.722Z,13.75
2019-05-18T17:35:01.397Z,12.18
2019-05-18T17:37:28.262Z,13.80
2019-05-18T17:39:55.073Z,13.15
2019-05-18T17:42:21.765Z,18.00
2019-05-18T17:44:48.683Z,14.28
2019-05-18T17:47:15.448Z,15.45
2019-05-18T17:49:42.195Z,17.65
2019-05-18T17:52:08.941Z,13.90
2019-05-18T17:54:35.737Z,26.48
2019-05-18T17:57:08.450Z,19.35
2019-05-18T17:59:31.225Z,19.65
2019-05-18T18:01:58.332Z,16.15
2019-05-18T18:04:25.200Z,21.45
2019-05-18T18:06:51.985Z,19.42
2019-05-18T18:09:18.888Z,17.98
2019-05-18T18:11:45.805Z,15.45
2019-05-18T18:14:12.569Z,21.07
2019-05-18T18:16:39.410Z,20.23
2019-05-18T18:19:06.291Z,20.02
2019-05-18T18:21:33.474Z,23.18
2019-05-18T18:24:00.249Z,19.05
2019-05-18T18:26:27.037Z,21.62
2019-05-18T18:28:54.115Z,25.95
2019-05-18T18:31:21.912Z,16.93
2019-05-18T18:33:48.605Z,18.07
2019-05-18T18:36:15.425Z,19.87
2019-05-18T18:38:42.191Z,15.53
2019-05-18T18:41:08.891Z,24.10
2019-05-18T18:43:35.669Z,18.92
2019-05-18T18:46:02.682Z,20.25
2019-05-18T18:48:29.621Z,18.80
2019-05-18T18:50:56.494Z,16.10
2019-05-18T18:53:23.286Z,23.57
2019-05-18T18:55:50.988Z,17.90
2019-05-18T18:58:17.748Z,22.00
2019-05-18T19:00:44.783Z,17.77
2019-05-18T19:03:11.490Z,17.57
2019-05-18T19:05:38.251Z,16.95
2019-05-18T19:08:05.228Z,22.10
2019-05-18T19:10:31.982Z,19.30
2019-05-18T19:12:58.714Z,19.50
2019-05-18T19:15:25.478Z,19.45
2019-05-18T19:17:52.247Z,20.20
2019-05-18T19:20:19.232Z,17.55
2019-05-18T19:22:45.928Z,19.60
2019-05-18T19:25:13.379Z,19.02
2019-05-18T19:27:52.726Z,22.42
2019-05-18T19:30:10.243Z,18.85
2019-05-18T19:32:37.409Z,18.15
2019-05-18T19:35:06.811Z,20.80
2019-05-18T19:37:33.538Z,16.10
2019-05-18T19:40:00.272Z,22.17
2019-05-18T19:42:27.123Z,19.77
2019-05-18T19:44:53.843Z,18.27
2019-05-18T19:47:20.536Z,24.75
2019-05-18T19:49:47.371Z,17.85
2019-05-18T19:52:14.090Z,17.55
2019-05-18T19:54:40.806Z,17.37
2019-05-18T19:57:07.624Z,16.07
2019-05-18T19:59:34.512Z,19.00
2019-05-18T20:02:01.367Z,16.75
2019-05-18T20:04:29.051Z,21.82
2019-05-18T20:06:55.943Z,20.52
2019-05-18T20:09:22.787Z,19.27
2019-05-18T20:11:49.469Z,18.85
2019-05-18T20:14:16.150Z,19.60
2019-05-18T20:16:42.930Z,19.30
2019-05-18T20:19:09.701Z,17.67
2019-05-18T20:21:36.438Z,21.35
2019-05-18T20:24:03.375Z,18.77
2019-05-18T20:26:30.186Z,18.82
2019-05-18T20:28:56.948Z,22.93
2019-05-18T20:31:23.765Z,25.52
2019-05-18T20:33:50.433Z,18.57
2019-05-18T20:36:17.145Z,18.55
2019-05-18T20:38:43.969Z,20.45
2019-05-18T20:41:10.748Z,20.12
2019-05-18T20:43:37.532Z,21.55
2019-05-18T20:46:04.279Z,18.25
2019-05-18T20:48:30.948Z,20.25
2019-05-18T20:50:57.697Z,20.95
2019-05-18T20:53:24.551Z,21.55
2019-05-18T20:55:51.307Z,21.23
2019-05-18T20:58:17.978Z,17.80
2019-05-18T21:00:45.008Z,19.30
2019-05-18T21:03:11.775Z,16.97
2019-05-18T21:05:38.521Z,21.95
2019-05-18T21:08:05.480Z,22.40
2019-05-18T21:10:32.337Z,19.75
2019-05-18T21:12:59.101Z,21.55
2019-05-18T21:15:25.880Z,19.00
2019-05-18T21:17:52.576Z,16.77
2019-05-18T21:20:19.248Z,16.62
2019-05-18T21:22:46.007Z,21.10
2019-05-18T21:25:12.775Z,20.60
2019-05-18T21:27:39.497Z,25.17
2019-05-18T21:30:06.681Z,18.12
2019-05-18T21:32:33.376Z,18.07
2019-05-18T21:35:00.087Z,18.85
2019-05-18T21:37:26.844Z,21.12
2019-05-18T21:39:53.521Z,22.27
2019-05-18T21:42:20.230Z,21.77
2019-05-18T21:44:47.076Z,20.08
2019-05-18T21:47:13.756Z,21.62
2019-05-18T21:49:40.524Z,22.70
2019-05-18T21:52:07.360Z,18.92
2019-05-18T21:54:34.080Z,18.02
2019-05-18T21:57:01.781Z,20.52
2019-05-18T21:59:28.550Z,24.70
2019-05-18T22:01:55.287Z,17.45
2019-05-18T22:04:23.043Z,17.65
2019-05-18T22:06:49.869Z,18.92
2019-05-18T22:09:16.609Z,23.12
2019-05-18T22:11:43.330Z,19.48
2019-05-18T22:14:10.241Z,22.48
2019-05-18T22:16:36.937Z,24.10
2019-05-18T22:19:04.793Z,20.25
2019-05-18T22:21:31.554Z,24.80
2019-05-18T22:23:58.328Z,24.65
2019-05-18T22:26:25.085Z,22.20
2019-05-18T22:28:51.812Z,21.33
2019-05-18T22:31:19.718Z,16.25
2019-05-18T22:33:46.742Z,22.82
2019-05-18T22:36:13.615Z,20.50
2019-05-18T22:38:40.325Z,19.98
2019-05-18T22:41:06.997Z,18.40
2019-05-18T22:43:33.853Z,19.37
2019-05-18T22:46:00.745Z,30.85
2019-05-18T22:48:40.312Z,25.32
2019-05-18T22:50:56.148Z,19.87
2019-05-18T22:53:22.821Z,28.57
2019-05-18T22:55:49.821Z,20.90
2019-05-18T22:58:16.900Z,25.65
2019-05-18T23:00:43.583Z,22.80
2019-05-18T23:03:10.354Z,21.02
2019-05-18T23:05:37.208Z,21.48
2019-05-18T23:08:04.110Z,20.88
2019-05-18T23:10:30.810Z,22.75
2019-05-18T23:12:57.649Z,18.87
2019-05-18T23:15:24.542Z,17.55
2019-05-18T23:17:51.466Z,20.00
2019-05-18T23:20:18.308Z,18.75
2019-05-18T23:22:45.044Z,21.23
2019-05-18T23:25:12.003Z,20.80
2019-05-18T23:27:38.762Z,18.98
2019-05-18T23:30:06.592Z,20.32
2019-05-18T23:32:33.262Z,18.20
2019-05-18T23:34:59.995Z,18.90
2019-05-18T23:37:26.688Z,16.93
2019-05-18T23:39:53.439Z,22.30
2019-05-18T23:42:20.286Z,17.52
2019-05-18T23:44:46.980Z,21.45
2019-05-18T23:47:13.834Z,18.77
2019-05-18T23:49:40.691Z,17.42
2019-05-18T23:52:07.377Z,20.00
2019-05-18T23:54:34.147Z,19.00
2019-05-18T23:57:00.887Z,20.43
2019-05-18T23:59:27.611Z,16.87
